createdAt,value
2019-03-12T00:00:13.062Z,91.02
2019-03-12T00:01:13.035Z,90.50
2019-03-12T00:02:12.997Z,90.75
2019-03-12T00:03:12.987Z,90.60
2019-03-12T00:04:12.924Z,90.64
2019-03-12T00:05:12.892Z,91.47
2019-03-12T00:06:12.855Z,91.37
2019-03-12T00:07:12.825Z,91.27
2019-03-12T00:08:12.899Z,91.27
2019-03-12T00:09:13.346Z,91.47
2019-03-12T00:10:12.720Z,91.62
2019-03-12T00:11:12.684Z,92.03
2019-03-12T00:12:12.760Z,91.83
2019-03-12T00:13:12.889Z,92.03
2019-03-12T00:14:16.249Z,91.83
2019-03-12T00:15:12.553Z,91.83
2019-03-12T00:16:12.509Z,91.47
2019-03-12T00:17:13.361Z,91.37
2019-03-12T00:18:12.441Z,91.62
2019-03-12T00:19:12.423Z,91.78
2019-03-12T00:20:12.394Z,91.16
2019-03-12T00:21:12.336Z,91.16
2019-03-12T00:22:12.294Z,91.10
2019-03-12T00:23:12.266Z,90.44
2019-03-12T00:24:12.255Z,90.54
2019-03-12T00:25:12.850Z,90.12
2019-03-12T00:26:12.163Z,89.81
2019-03-12T00:27:12.865Z,90.02
2019-03-12T00:28:12.085Z,89.92
2019-03-12T00:29:12.070Z,90.23
2019-03-12T00:30:12.017Z,90.23
2019-03-12T00:31:11.979Z,90.02
2019-03-12T00:32:11.944Z,89.81
2019-03-12T00:33:11.944Z,90.02
2019-03-12T00:34:11.911Z,89.92
2019-03-12T00:35:11.843Z,90.12
2019-03-12T00:36:12.351Z,90.64
2019-03-12T00:37:11.793Z,90.54
2019-03-12T00:38:11.742Z,90.44
2019-03-12T00:39:12.402Z,90.47
2019-03-12T00:40:12.352Z,89.92
2019-03-12T00:41:11.628Z,89.92
2019-03-12T00:42:11.622Z,90.69
2019-03-12T00:43:11.572Z,89.92
2019-03-12T00:44:11.581Z,89.60
2019-03-12T00:45:12.355Z,89.50
2019-03-12T00:46:11.483Z,89.92
2019-03-12T00:47:12.350Z,89.39
2019-03-12T00:48:12.372Z,89.81
2019-03-12T00:49:11.380Z,89.29
2019-03-12T00:50:11.321Z,89.39
2019-03-12T00:51:11.313Z,88.98
2019-03-12T00:52:12.252Z,88.77
2019-03-12T00:53:11.229Z,89.18
2019-03-12T00:54:11.215Z,89.29
2019-03-12T00:55:11.854Z,89.29
2019-03-12T00:56:11.111Z,88.84
2019-03-12T00:57:11.078Z,88.67
2019-03-12T00:58:11.861Z,89.18
2019-03-12T00:59:11.026Z,88.73
2019-03-12T01:00:10.980Z,88.98
2019-03-12T01:01:10.965Z,88.67
2019-03-12T01:02:10.989Z,88.94
2019-03-12T01:03:10.874Z,89.08
2019-03-12T01:04:10.855Z,89.39
2019-03-12T01:05:10.802Z,88.87
2019-03-12T01:06:10.763Z,89.39
2019-03-12T01:07:11.378Z,89.39
2019-03-12T01:08:10.699Z,89.29
2019-03-12T01:09:10.735Z,88.98
2019-03-12T01:10:10.621Z,89.18
2019-03-12T01:11:10.591Z,88.87
2019-03-12T01:12:10.552Z,88.94
2019-03-12T01:13:10.525Z,88.77
2019-03-12T01:14:10.518Z,88.77
2019-03-12T01:15:10.528Z,88.77
2019-03-12T01:16:10.411Z,88.25
2019-03-12T01:17:10.381Z,88.56
2019-03-12T01:18:13.581Z,88.35
2019-03-12T01:19:10.386Z,88.46
2019-03-12T01:20:10.289Z,88.46
2019-03-12T01:21:10.240Z,88.98
2019-03-12T01:22:10.220Z,88.67
2019-03-12T01:23:10.855Z,88.62
2019-03-12T01:24:10.755Z,88.94
2019-03-12T01:25:10.109Z,88.77
2019-03-12T01:26:10.063Z,88.67
2019-03-12T01:27:10.024Z,88.35
2019-03-12T01:28:09.991Z,88.46
2019-03-12T01:29:10.390Z,88.04
2019-03-12T01:30:09.924Z,87.84
2019-03-12T01:31:09.917Z,88.25
2019-03-12T01:32:09.855Z,87.94
2019-03-12T01:33:09.819Z,88.04
2019-03-12T01:34:09.811Z,87.63
2019-03-12T01:35:09.776Z,88.56
2019-03-12T01:36:09.719Z,88.04
2019-03-12T01:37:09.681Z,88.56
2019-03-12T01:38:10.370Z,87.94
2019-03-12T01:39:09.608Z,88.46
2019-03-12T01:40:09.886Z,88.15
2019-03-12T01:41:09.616Z,87.52
2019-03-12T01:42:09.507Z,87.90
2019-03-12T01:43:09.474Z,88.15
2019-03-12T01:44:10.376Z,87.63
2019-03-12T01:45:09.431Z,87.27
2019-03-12T01:46:09.370Z,87.32
2019-03-12T01:47:09.857Z,88.04
2019-03-12T01:48:09.291Z,87.63
2019-03-12T01:49:09.256Z,87.42
2019-03-12T01:50:09.252Z,87.84
2019-03-12T01:51:09.876Z,87.63
2019-03-12T01:52:09.153Z,87.32
2019-03-12T01:53:09.118Z,87.63
2019-03-12T01:54:09.855Z,87.63
2019-03-12T01:55:09.092Z,88.04
2019-03-12T01:56:09.098Z,87.52
2019-03-12T01:57:09.861Z,87.84
2019-03-12T01:58:09.852Z,87.63
2019-03-12T01:59:08.917Z,88.04
2019-03-12T02:00:08.909Z,88.35
2019-03-12T02:01:09.359Z,87.94
2019-03-12T02:02:08.802Z,88.15
2019-03-12T02:03:08.774Z,88.04
2019-03-12T02:04:09.363Z,87.73
2019-03-12T02:05:08.894Z,88.00
2019-03-12T02:06:08.666Z,87.94
2019-03-12T02:07:09.513Z,88.00
2019-03-12T02:08:08.611Z,88.35
2019-03-12T02:09:08.618Z,88.52
2019-03-12T02:10:08.572Z,88.56
2019-03-12T02:11:08.491Z,88.35
2019-03-12T02:12:08.462Z,88.21
2019-03-12T02:13:08.438Z,88.21
2019-03-12T02:14:08.403Z,88.42
2019-03-12T02:15:08.378Z,88.21
2019-03-12T02:16:08.318Z,88.21
2019-03-12T02:17:08.865Z,88.21
2019-03-12T02:18:08.260Z,88.42
2019-03-12T02:19:08.222Z,88.73
2019-03-12T02:20:08.391Z,88.00
2019-03-12T02:21:08.146Z,88.73
2019-03-12T02:22:08.118Z,88.10
2019-03-12T02:23:08.088Z,88.21
2019-03-12T02:24:08.879Z,88.00
2019-03-12T02:25:08.037Z,88.10
2019-03-12T02:26:07.972Z,88.10
2019-03-12T02:27:07.937Z,88.21
2019-03-12T02:28:07.900Z,87.79
2019-03-12T02:29:07.880Z,88.62
2019-03-12T02:30:07.856Z,87.90
2019-03-12T02:31:07.799Z,88.21
2019-03-12T02:32:07.766Z,88.31
2019-03-12T02:33:07.738Z,88.10
2019-03-12T02:34:07.708Z,88.42
2019-03-12T02:35:07.921Z,87.79
2019-03-12T02:36:08.357Z,88.31
2019-03-12T02:37:08.359Z,88.00
2019-03-12T02:38:08.359Z,88.21
2019-03-12T02:39:07.901Z,88.52
2019-03-12T02:40:07.514Z,88.62
2019-03-12T02:41:07.454Z,88.21
2019-03-12T02:42:07.482Z,88.00
2019-03-12T02:43:08.359Z,88.31
2019-03-12T02:44:07.354Z,88.31
2019-03-12T02:45:07.347Z,88.31
2019-03-12T02:46:07.281Z,88.31
2019-03-12T02:47:07.348Z,88.31
2019-03-12T02:48:07.864Z,88.62
2019-03-12T02:49:09.387Z,88.00
2019-03-12T02:50:07.149Z,88.21
2019-03-12T02:51:07.398Z,88.21
2019-03-12T02:52:07.071Z,88.42
2019-03-12T02:53:07.037Z,88.73
2019-03-12T02:54:07.086Z,88.73
2019-03-12T02:55:06.969Z,88.52
2019-03-12T02:56:06.970Z,88.42
2019-03-12T02:57:07.865Z,88.73
2019-03-12T02:58:06.867Z,88.79
2019-03-12T02:59:06.835Z,88.84
2019-03-12T03:00:06.808Z,89.04
2019-03-12T03:01:06.815Z,88.73
2019-03-12T03:02:06.733Z,89.00
2019-03-12T03:03:06.725Z,88.94
2019-03-12T03:04:06.657Z,88.62
2019-03-12T03:05:07.373Z,88.59
2019-03-12T03:06:06.626Z,88.84
2019-03-12T03:07:06.564Z,88.38
2019-03-12T03:08:07.292Z,88.38
2019-03-12T03:09:06.488Z,89.21
2019-03-12T03:10:06.467Z,88.59
2019-03-12T03:11:06.452Z,88.38
2019-03-12T03:12:06.395Z,88.79
2019-03-12T03:13:06.357Z,88.59
2019-03-12T03:14:06.318Z,88.79
2019-03-12T03:15:07.327Z,88.17
2019-03-12T03:16:06.272Z,88.17
2019-03-12T03:17:06.221Z,88.07
2019-03-12T03:18:06.189Z,88.28
2019-03-12T03:19:06.149Z,88.17
2019-03-12T03:20:06.870Z,87.65
2019-03-12T03:21:06.911Z,87.86
2019-03-12T03:22:06.052Z,88.38
2019-03-12T03:23:06.021Z,88.07
2019-03-12T03:24:06.021Z,87.96
2019-03-12T03:25:05.938Z,87.96
2019-03-12T03:26:06.404Z,87.65
2019-03-12T03:27:05.871Z,88.28
2019-03-12T03:28:06.365Z,87.45
2019-03-12T03:29:06.375Z,88.38
2019-03-12T03:30:06.284Z,87.96
2019-03-12T03:31:05.759Z,87.86
2019-03-12T03:32:05.705Z,88.02
2019-03-12T03:33:05.958Z,87.96
2019-03-12T03:34:05.871Z,87.86
2019-03-12T03:35:05.612Z,87.86
2019-03-12T03:36:05.629Z,87.96
2019-03-12T03:37:05.536Z,88.02
2019-03-12T03:38:06.366Z,87.24
2019-03-12T03:39:11.268Z,87.34
2019-03-12T03:40:06.383Z,87.65
2019-03-12T03:41:05.946Z,87.76
2019-03-12T03:42:05.404Z,87.40
2019-03-12T03:43:05.319Z,87.24
2019-03-12T03:44:05.885Z,87.13
2019-03-12T03:45:05.257Z,86.72
2019-03-12T03:46:05.996Z,86.82
2019-03-12T03:47:05.190Z,87.03
2019-03-12T03:48:05.162Z,87.34
2019-03-12T03:49:05.117Z,87.24
2019-03-12T03:50:05.106Z,87.24
2019-03-12T03:51:05.442Z,87.13
2019-03-12T03:52:05.013Z,86.82
2019-03-12T03:53:04.996Z,86.72
2019-03-12T03:54:05.872Z,87.03
2019-03-12T03:55:04.919Z,86.82
2019-03-12T03:56:05.889Z,86.51
2019-03-12T03:57:04.895Z,86.41
2019-03-12T03:58:04.817Z,85.99
2019-03-12T03:59:04.776Z,85.88
2019-03-12T04:00:04.744Z,85.47
2019-03-12T04:01:05.403Z,85.57
2019-03-12T04:02:04.728Z,84.74
2019-03-12T04:03:04.645Z,85.16
2019-03-12T04:04:04.607Z,85.72
2019-03-12T04:05:04.569Z,85.78
2019-03-12T04:06:04.552Z,85.47
2019-03-12T04:07:04.529Z,85.57
2019-03-12T04:08:04.487Z,85.99
2019-03-12T04:09:04.443Z,86.09
2019-03-12T04:10:04.396Z,86.13
2019-03-12T04:11:04.896Z,85.88
2019-03-12T04:12:04.358Z,85.68
2019-03-12T04:13:04.308Z,85.93
2019-03-12T04:14:04.271Z,85.68
2019-03-12T04:15:04.228Z,85.99
2019-03-12T04:16:04.214Z,85.99
2019-03-12T04:17:04.190Z,85.99
2019-03-12T04:18:04.128Z,85.74
2019-03-12T04:19:04.094Z,85.88
2019-03-12T04:20:04.052Z,85.88
2019-03-12T04:21:04.888Z,85.78
2019-03-12T04:22:04.410Z,85.78
2019-03-12T04:23:04.884Z,85.68
2019-03-12T04:24:04.896Z,85.57
2019-03-12T04:25:03.900Z,85.47
2019-03-12T04:26:03.862Z,85.36
2019-03-12T04:27:03.855Z,85.99
2019-03-12T04:28:04.370Z,86.09
2019-03-12T04:29:10.771Z,85.78
2019-03-12T04:30:04.375Z,85.88
2019-03-12T04:31:03.686Z,85.99
2019-03-12T04:32:03.786Z,85.99
2019-03-12T04:33:03.655Z,85.88
2019-03-12T04:34:03.596Z,86.13
2019-03-12T04:35:03.599Z,85.88
2019-03-12T04:36:03.627Z,86.09
2019-03-12T04:37:04.018Z,85.57
2019-03-12T04:38:03.456Z,85.57
2019-03-12T04:39:05.592Z,85.57
2019-03-12T04:40:03.373Z,85.47
2019-03-12T04:41:03.355Z,85.93
2019-03-12T04:42:03.334Z,85.93
2019-03-12T04:43:03.269Z,85.82
2019-03-12T04:44:03.888Z,86.03
2019-03-12T04:45:03.209Z,85.51
2019-03-12T04:46:03.873Z,85.30
2019-03-12T04:47:03.158Z,85.57
2019-03-12T04:48:03.872Z,85.51
2019-03-12T04:49:06.773Z,85.51
2019-03-12T04:50:03.881Z,85.93
2019-03-12T04:51:03.038Z,86.03
2019-03-12T04:52:03.005Z,85.82
2019-03-12T04:53:03.870Z,85.82
2019-03-12T04:54:03.889Z,85.82
2019-03-12T04:55:03.384Z,86.03
2019-03-12T04:56:02.862Z,86.44
2019-03-12T04:57:02.820Z,86.49
2019-03-12T04:58:02.770Z,87.21
2019-03-12T04:59:02.757Z,87.21
2019-03-12T05:00:02.688Z,87.32
2019-03-12T05:01:03.386Z,87.66
2019-03-12T05:02:02.757Z,87.66
2019-03-12T05:03:03.415Z,87.98
2019-03-12T05:04:02.554Z,87.35
2019-03-12T05:05:03.381Z,87.56
2019-03-12T05:06:02.487Z,87.88
2019-03-12T05:07:02.472Z,87.60
2019-03-12T05:08:02.419Z,87.81
2019-03-12T05:09:02.881Z,88.12
2019-03-12T05:10:02.345Z,87.85
2019-03-12T05:11:02.316Z,88.37
2019-03-12T05:12:02.296Z,88.52
2019-03-12T05:13:02.238Z,88.68
2019-03-12T05:14:02.202Z,88.89
2019-03-12T05:15:02.226Z,88.68
2019-03-12T05:16:02.881Z,89.14
2019-03-12T05:17:02.102Z,88.89
2019-03-12T05:18:02.087Z,89.41
2019-03-12T05:19:02.029Z,89.14
2019-03-12T05:20:02.879Z,89.41
2019-03-12T05:21:02.876Z,89.66
2019-03-12T05:22:01.924Z,89.98
2019-03-12T05:23:01.910Z,89.94
2019-03-12T05:24:01.868Z,89.62
2019-03-12T05:25:01.828Z,89.62
2019-03-12T05:26:01.795Z,89.20
2019-03-12T05:27:01.751Z,89.20
2019-03-12T05:28:01.740Z,89.20
2019-03-12T05:29:01.680Z,89.20
2019-03-12T05:30:01.651Z,89.10
2019-03-12T05:31:01.610Z,89.06
2019-03-12T05:32:01.569Z,88.54
2019-03-12T05:33:01.563Z,88.54
2019-03-12T05:34:01.509Z,88.64
2019-03-12T05:35:01.468Z,88.12
2019-03-12T05:36:01.430Z,88.43
2019-03-12T05:37:02.375Z,88.60
2019-03-12T05:38:01.405Z,87.92
2019-03-12T05:39:01.326Z,88.19
2019-03-12T05:40:01.294Z,88.29
2019-03-12T05:41:01.303Z,87.56
2019-03-12T05:42:01.226Z,87.46
2019-03-12T05:43:01.224Z,87.66
2019-03-12T05:44:01.152Z,87.73
2019-03-12T05:45:01.123Z,87.73
2019-03-12T05:46:01.085Z,87.63
2019-03-12T05:47:01.877Z,87.63
2019-03-12T05:48:01.411Z,86.90
2019-03-12T05:49:01.874Z,86.59
2019-03-12T05:50:00.945Z,86.38
2019-03-12T05:51:00.911Z,86.03
2019-03-12T05:52:01.414Z,86.24
2019-03-12T05:53:00.975Z,85.93
2019-03-12T05:54:01.396Z,86.44
2019-03-12T05:55:00.857Z,86.09
2019-03-12T05:56:01.380Z,85.72
2019-03-12T05:57:07.749Z,85.88
2019-03-12T05:58:00.691Z,85.78
2019-03-12T05:59:00.631Z,85.88
2019-03-12T06:00:00.597Z,85.99
2019-03-12T06:01:00.578Z,85.68
2019-03-12T06:02:00.526Z,85.78
2019-03-12T06:03:00.945Z,85.78
2019-03-12T06:04:00.630Z,85.68
2019-03-12T06:05:00.453Z,85.78
2019-03-12T06:06:00.395Z,86.05
2019-03-12T06:07:00.887Z,85.43
2019-03-12T06:08:00.354Z,85.33
2019-03-12T06:09:00.305Z,85.12
2019-03-12T06:10:00.402Z,85.53
2019-03-12T06:11:00.226Z,86.16
2019-03-12T06:12:00.195Z,85.85
2019-03-12T06:13:00.890Z,85.64
2019-03-12T06:14:00.149Z,85.53
2019-03-12T06:15:00.120Z,85.33
2019-03-12T06:16:00.052Z,85.95
2019-03-12T06:17:00.115Z,85.74
2019-03-12T06:17:59.991Z,85.74
2019-03-12T06:19:00.013Z,85.71
2019-03-12T06:19:59.918Z,85.71
2019-03-12T06:20:59.883Z,86.12
2019-03-12T06:21:59.849Z,85.95
2019-03-12T06:22:59.841Z,85.50
2019-03-12T06:23:59.807Z,85.85
2019-03-12T06:24:59.769Z,85.33
2019-03-12T06:25:59.749Z,85.33
2019-03-12T06:26:59.681Z,85.95
2019-03-12T06:27:59.655Z,85.64
2019-03-12T06:28:59.661Z,85.60
2019-03-12T06:29:59.586Z,86.12
2019-03-12T06:30:59.585Z,85.91
2019-03-12T06:31:59.570Z,86.43
2019-03-12T06:32:59.541Z,86.02
2019-03-12T06:33:59.474Z,86.43
2019-03-12T06:34:59.417Z,86.43
2019-03-12T06:35:59.930Z,86.33
2019-03-12T06:36:59.417Z,86.74
2019-03-12T06:37:59.359Z,87.57
2019-03-12T06:38:59.538Z,86.74
2019-03-12T06:39:59.259Z,86.85
2019-03-12T06:40:59.241Z,87.16
2019-03-12T06:41:59.185Z,86.85
2019-03-12T06:42:59.166Z,87.32
2019-03-12T06:43:59.457Z,87.43
2019-03-12T06:44:59.090Z,86.39
2019-03-12T06:45:59.051Z,86.97
2019-03-12T06:46:59.028Z,86.66
2019-03-12T06:47:58.983Z,85.83
2019-03-12T06:48:58.996Z,85.48
2019-03-12T06:50:00.465Z,85.48
2019-03-12T06:50:58.875Z,85.55
2019-03-12T06:51:58.851Z,84.99
2019-03-12T06:52:58.820Z,82.88
2019-03-12T06:53:58.790Z,82.60
2019-03-12T06:54:58.770Z,82.88
2019-03-12T06:55:58.714Z,82.92
2019-03-12T06:56:58.689Z,84.06
2019-03-12T06:57:59.417Z,84.16
2019-03-12T06:58:58.624Z,83.12
2019-03-12T06:59:58.658Z,83.75
2019-03-12T07:00:58.548Z,83.09
2019-03-12T07:01:58.514Z,83.71
2019-03-12T07:02:58.481Z,83.71
2019-03-12T07:03:58.451Z,83.29
2019-03-12T07:04:58.927Z,83.09
2019-03-12T07:05:58.919Z,83.81
2019-03-12T07:07:00.827Z,82.84
2019-03-12T07:07:58.330Z,82.01
2019-03-12T07:08:58.286Z,82.18
2019-03-12T07:09:58.608Z,81.67
2019-03-12T07:10:58.227Z,81.81
2019-03-12T07:11:58.897Z,81.39
2019-03-12T07:12:58.159Z,82.08
2019-03-12T07:13:58.125Z,82.01
2019-03-12T07:14:58.145Z,82.36
2019-03-12T07:15:58.062Z,83.71
2019-03-12T07:16:58.896Z,83.71
2019-03-12T07:17:57.998Z,83.50
2019-03-12T07:18:57.965Z,84.12
2019-03-12T07:19:57.947Z,83.71
2019-03-12T07:20:57.928Z,83.91
2019-03-12T07:21:57.866Z,84.08
2019-03-12T07:22:57.841Z,83.63
2019-03-12T07:23:57.800Z,82.70
2019-03-12T07:24:57.772Z,82.25
2019-03-12T07:25:57.765Z,81.63
2019-03-12T07:26:57.704Z,81.11
2019-03-12T07:27:58.398Z,80.80
2019-03-12T07:28:57.642Z,81.18
2019-03-12T07:29:57.609Z,80.66
2019-03-12T07:30:57.605Z,79.73
2019-03-12T07:31:58.412Z,79.52
2019-03-12T07:32:57.521Z,80.08
2019-03-12T07:33:57.501Z,79.83
2019-03-12T07:34:57.458Z,80.04
2019-03-12T07:35:57.483Z,79.80
2019-03-12T07:36:57.395Z,80.00
2019-03-12T07:37:57.902Z,79.49
2019-03-12T07:38:57.917Z,80.00
2019-03-12T07:39:57.294Z,80.76
2019-03-12T07:40:57.364Z,81.80
2019-03-12T07:41:57.222Z,80.97
2019-03-12T07:42:57.268Z,79.83
2019-03-12T07:43:57.166Z,79.73
2019-03-12T07:44:57.132Z,79.87
2019-03-12T07:45:57.095Z,80.29
2019-03-12T07:46:57.095Z,80.70
2019-03-12T07:47:57.042Z,80.97
2019-03-12T07:48:57.117Z,80.66
2019-03-12T07:49:56.976Z,81.18
2019-03-12T07:50:56.938Z,80.87
2019-03-12T07:51:56.946Z,80.97
2019-03-12T07:52:56.876Z,80.97
2019-03-12T07:53:59.827Z,81.18
2019-03-12T07:54:56.819Z,80.46
2019-03-12T07:55:56.798Z,80.70
2019-03-12T07:56:56.799Z,80.56
2019-03-12T07:57:56.774Z,80.83
2019-03-12T07:58:56.718Z,80.62
2019-03-12T07:59:57.398Z,80.42
2019-03-12T08:00:56.661Z,79.69
2019-03-12T08:01:56.663Z,79.69
2019-03-12T08:02:56.570Z,79.59
2019-03-12T08:03:58.955Z,79.69
2019-03-12T08:04:56.503Z,80.11
2019-03-12T08:05:56.466Z,79.80
2019-03-12T08:06:56.460Z,79.69
2019-03-12T08:07:56.401Z,79.83
2019-03-12T08:08:56.932Z,79.83
2019-03-12T08:09:56.340Z,80.46
2019-03-12T08:10:56.311Z,79.97
2019-03-12T08:11:56.302Z,79.83
2019-03-12T08:12:56.965Z,80.60
2019-03-12T08:13:56.217Z,80.49
2019-03-12T08:14:56.181Z,81.11
2019-03-12T08:15:56.149Z,81.87
2019-03-12T08:16:56.200Z,82.39
2019-03-12T08:17:56.116Z,82.66
2019-03-12T08:18:56.084Z,82.25
2019-03-12T08:19:56.036Z,82.04
2019-03-12T08:20:56.001Z,81.49
2019-03-12T08:21:56.087Z,81.84
2019-03-12T08:22:55.957Z,81.84
2019-03-12T08:23:56.045Z,82.25
2019-03-12T08:24:55.868Z,82.00
2019-03-12T08:25:55.831Z,82.66
2019-03-12T08:26:56.403Z,82.10
2019-03-12T08:27:56.804Z,81.90
2019-03-12T08:28:55.743Z,80.97
2019-03-12T08:29:55.708Z,80.70
2019-03-12T08:30:56.408Z,81.21
2019-03-12T08:31:56.401Z,81.73
2019-03-12T08:32:55.936Z,81.70
2019-03-12T08:33:55.589Z,81.80
2019-03-12T08:34:55.546Z,80.25
2019-03-12T08:35:55.517Z,79.80
2019-03-12T08:36:55.484Z,78.56
2019-03-12T08:37:55.476Z,78.77
2019-03-12T08:38:56.731Z,78.97
2019-03-12T08:39:55.386Z,78.77
2019-03-12T08:40:55.380Z,78.42
2019-03-12T08:41:55.930Z,77.49
2019-03-12T08:42:55.332Z,77.28
2019-03-12T08:43:55.302Z,77.15
2019-03-12T08:44:57.899Z,76.35
2019-03-12T08:45:55.471Z,76.25
2019-03-12T08:46:55.175Z,76.73
2019-03-12T08:47:55.137Z,76.42
2019-03-12T08:48:55.102Z,75.87
2019-03-12T08:49:55.069Z,75.91
2019-03-12T08:50:55.065Z,75.91
2019-03-12T08:51:55.050Z,76.70
2019-03-12T08:52:54.977Z,75.46
2019-03-12T08:53:54.972Z,74.91
2019-03-12T08:54:54.980Z,74.46
2019-03-12T08:55:54.888Z,73.61
2019-03-12T08:56:54.853Z,72.68
2019-03-12T08:57:54.827Z,72.47
2019-03-12T08:58:54.850Z,71.86
2019-03-12T08:59:54.799Z,71.96
2019-03-12T09:00:54.729Z,71.96
2019-03-12T09:01:54.698Z,73.47
2019-03-12T09:02:54.670Z,72.27
2019-03-12T09:03:54.942Z,72.99
2019-03-12T09:04:54.608Z,72.06
2019-03-12T09:05:54.583Z,71.65
2019-03-12T09:06:55.532Z,72.88
2019-03-12T09:07:54.577Z,72.34
2019-03-12T09:08:54.515Z,71.62
2019-03-12T09:09:54.464Z,71.92
2019-03-12T09:10:54.426Z,72.27
2019-03-12T09:11:54.404Z,72.09
2019-03-12T09:12:54.381Z,72.75
2019-03-12T09:13:54.358Z,73.36
2019-03-12T09:14:54.308Z,73.57
2019-03-12T09:15:54.276Z,73.36
2019-03-12T09:16:54.249Z,74.26
2019-03-12T09:17:54.210Z,74.67
2019-03-12T09:18:54.214Z,72.41
2019-03-12T09:19:54.186Z,73.81
2019-03-12T09:20:54.915Z,73.40
2019-03-12T09:21:54.092Z,73.30
2019-03-12T09:22:54.064Z,72.24
2019-03-12T09:23:54.033Z,70.90
2019-03-12T09:24:54.038Z,69.73
2019-03-12T09:25:53.974Z,67.71
2019-03-12T09:26:53.942Z,67.91
2019-03-12T09:27:54.421Z,68.53
2019-03-12T09:28:53.889Z,67.88
2019-03-12T09:29:53.870Z,68.08
2019-03-12T09:30:54.421Z,67.13
2019-03-12T09:31:53.799Z,67.03
2019-03-12T09:32:54.416Z,67.13
2019-03-12T09:33:53.724Z,66.58
2019-03-12T09:34:53.962Z,65.45
2019-03-12T09:35:53.677Z,65.38
2019-03-12T09:36:54.218Z,65.56
2019-03-12T09:37:53.614Z,65.35
2019-03-12T09:38:53.575Z,64.12
2019-03-12T09:39:53.569Z,64.36
2019-03-12T09:40:53.513Z,64.25
2019-03-12T09:41:53.496Z,64.04
2019-03-12T09:42:53.451Z,63.71
2019-03-12T09:44:00.320Z,62.88
2019-03-12T09:44:53.430Z,62.68
2019-03-12T09:45:53.922Z,62.11
2019-03-12T09:46:53.335Z,62.11
2019-03-12T09:47:53.307Z,61.77
2019-03-12T09:48:53.269Z,61.67
2019-03-12T09:49:53.269Z,61.29
2019-03-12T09:50:53.224Z,60.57
2019-03-12T09:51:53.185Z,60.93
2019-03-12T09:52:53.157Z,61.04
2019-03-12T09:53:53.145Z,61.42
2019-03-12T09:54:53.121Z,62.27
2019-03-12T09:55:53.068Z,63.06
2019-03-12T09:56:53.098Z,62.78
2019-03-12T09:57:53.001Z,63.40
2019-03-12T09:58:54.052Z,62.45
2019-03-12T09:59:52.950Z,61.21
2019-03-12T10:00:52.990Z,61.93
2019-03-12T10:01:52.933Z,61.80
2019-03-12T10:02:52.878Z,61.60
2019-03-12T10:03:53.469Z,60.67
2019-03-12T10:04:52.799Z,60.16
2019-03-12T10:05:52.808Z,59.82
2019-03-12T10:06:52.827Z,60.85
2019-03-12T10:07:52.776Z,59.82
2019-03-12T10:08:52.686Z,60.05
2019-03-12T10:09:53.422Z,60.77
2019-03-12T10:10:52.653Z,61.57
2019-03-12T10:11:52.589Z,61.85
2019-03-12T10:12:52.603Z,61.74
2019-03-12T10:13:52.530Z,59.89
2019-03-12T10:14:52.506Z,59.28
2019-03-12T10:15:52.500Z,59.89
2019-03-12T10:16:52.443Z,58.97
2019-03-12T10:17:52.426Z,57.54
2019-03-12T10:18:52.392Z,59.08
2019-03-12T10:19:52.393Z,59.38
2019-03-12T10:20:52.364Z,59.87
2019-03-12T10:21:52.315Z,58.84
2019-03-12T10:22:52.285Z,57.00
2019-03-12T10:23:52.235Z,57.20
2019-03-12T10:24:52.227Z,57.20
2019-03-12T10:25:52.217Z,57.10
2019-03-12T10:26:52.159Z,57.10
2019-03-12T10:27:52.121Z,56.49
2019-03-12T10:28:52.116Z,56.10
2019-03-12T10:29:52.078Z,56.51
2019-03-12T10:30:52.107Z,57.03
2019-03-12T10:31:52.004Z,56.90
2019-03-12T10:32:51.972Z,56.67
2019-03-12T10:33:52.949Z,56.05
2019-03-12T10:34:51.916Z,56.38
2019-03-12T10:35:51.912Z,55.26
2019-03-12T10:36:51.892Z,55.18
2019-03-12T10:37:51.898Z,56.00
2019-03-12T10:38:51.807Z,56.41
2019-03-12T10:39:51.773Z,55.38
2019-03-12T10:40:51.744Z,55.18
2019-03-12T10:41:51.748Z,56.30
2019-03-12T10:42:51.679Z,56.10
2019-03-12T10:43:51.652Z,56.18
2019-03-12T10:44:52.440Z,55.13
2019-03-12T10:45:51.593Z,56.46
2019-03-12T10:46:51.963Z,54.92
2019-03-12T10:47:51.560Z,54.44
2019-03-12T10:48:51.510Z,54.64
2019-03-12T10:49:51.473Z,56.41
2019-03-12T10:50:51.454Z,56.00
2019-03-12T10:51:51.443Z,54.64
2019-03-12T10:52:51.385Z,54.64
2019-03-12T10:53:51.384Z,55.15
2019-03-12T10:54:51.365Z,53.95
2019-03-12T10:55:51.298Z,54.05
2019-03-12T10:56:51.315Z,53.82
2019-03-12T10:57:51.930Z,54.74
2019-03-12T10:58:51.255Z,55.46
2019-03-12T10:59:51.181Z,54.85
2019-03-12T11:00:51.147Z,55.26
2019-03-12T11:01:51.183Z,55.49
2019-03-12T11:02:51.093Z,55.05
2019-03-12T11:03:51.063Z,54.44
2019-03-12T11:04:51.037Z,54.33
2019-03-12T11:05:51.003Z,55.15
2019-03-12T11:06:51.019Z,55.28
2019-03-12T11:07:50.946Z,55.59
2019-03-12T11:08:50.920Z,54.97
2019-03-12T11:09:50.892Z,54.23
2019-03-12T11:10:50.902Z,54.95
2019-03-12T11:11:50.851Z,56.38
2019-03-12T11:12:51.437Z,55.15
2019-03-12T11:13:50.767Z,55.02
2019-03-12T11:14:50.737Z,55.33
2019-03-12T11:15:50.720Z,54.74
2019-03-12T11:16:50.708Z,56.49
2019-03-12T11:17:50.657Z,54.72
2019-03-12T11:18:50.642Z,54.61
2019-03-12T11:19:50.609Z,54.41
2019-03-12T11:20:51.458Z,53.69
2019-03-12T11:21:50.975Z,53.18
2019-03-12T11:22:51.475Z,52.59
2019-03-12T11:23:50.535Z,52.82
2019-03-12T11:24:54.338Z,52.84
2019-03-12T11:25:50.487Z,53.46
2019-03-12T11:26:50.657Z,54.15
2019-03-12T11:27:50.377Z,54.15
2019-03-12T11:28:50.537Z,54.57
2019-03-12T11:29:50.317Z,54.05
2019-03-12T11:30:51.342Z,54.25
2019-03-12T11:31:50.260Z,54.25
2019-03-12T11:32:50.207Z,54.36
2019-03-12T11:33:50.176Z,53.74
2019-03-12T11:34:50.968Z,52.00
2019-03-12T11:35:50.115Z,52.92
2019-03-12T11:36:50.140Z,52.82
2019-03-12T11:37:50.058Z,53.31
2019-03-12T11:38:50.042Z,52.49
2019-03-12T11:39:50.016Z,52.56
2019-03-12T11:40:49.984Z,52.05
2019-03-12T11:41:50.053Z,52.47
2019-03-12T11:42:49.980Z,52.54
2019-03-12T11:43:54.358Z,51.39
2019-03-12T11:44:49.861Z,50.98
2019-03-12T11:45:49.820Z,51.39
2019-03-12T11:46:49.797Z,50.88
2019-03-12T11:47:49.863Z,51.90
2019-03-12T11:48:49.751Z,52.72
2019-03-12T11:49:49.737Z,51.72
2019-03-12T11:50:49.671Z,51.01
2019-03-12T11:51:49.981Z,51.21
2019-03-12T11:52:56.367Z,51.82
2019-03-12T11:53:49.590Z,50.98
2019-03-12T11:54:49.617Z,50.78
2019-03-12T11:55:49.523Z,50.16
2019-03-12T11:56:49.567Z,48.93
2019-03-12T11:57:57.217Z,50.47
2019-03-12T11:58:50.046Z,49.85
2019-03-12T11:59:49.400Z,51.01
2019-03-12T12:00:49.389Z,49.75
2019-03-12T12:01:49.339Z,49.63
2019-03-12T12:02:59.314Z,49.83
2019-03-12T12:03:49.285Z,49.44
2019-03-12T12:04:49.258Z,49.22
2019-03-12T12:05:49.257Z,49.14
2019-03-12T12:06:49.195Z,50.06
2019-03-12T12:07:49.276Z,49.44
2019-03-12T12:08:49.138Z,48.63
2019-03-12T12:09:49.127Z,47.91
2019-03-12T12:10:51.976Z,49.24
2019-03-12T12:11:49.046Z,49.14
2019-03-12T12:12:49.513Z,49.04
2019-03-12T12:13:48.990Z,49.34
2019-03-12T12:14:48.965Z,49.24
2019-03-12T12:15:48.929Z,49.75
2019-03-12T12:16:48.902Z,50.67
2019-03-12T12:17:49.495Z,49.96
2019-03-12T12:18:49.488Z,49.14
2019-03-12T12:19:49.477Z,49.34
2019-03-12T12:20:49.496Z,49.65
2019-03-12T12:21:49.887Z,49.24
2019-03-12T12:22:49.015Z,48.83
2019-03-12T12:23:48.700Z,48.42
2019-03-12T12:24:48.674Z,47.60
2019-03-12T12:25:48.642Z,48.22
2019-03-12T12:26:48.611Z,48.09
2019-03-12T12:27:48.601Z,48.81
2019-03-12T12:28:48.633Z,48.71
2019-03-12T12:29:48.523Z,47.99
2019-03-12T12:30:48.492Z,48.91
2019-03-12T12:31:48.502Z,48.19
2019-03-12T12:32:48.467Z,49.52
2019-03-12T12:33:48.412Z,48.50
2019-03-12T12:34:48.378Z,47.71
2019-03-12T12:35:48.425Z,48.44
2019-03-12T12:36:48.317Z,48.44
2019-03-12T12:37:48.313Z,49.26
2019-03-12T12:38:48.258Z,50.93
2019-03-12T12:39:48.233Z,49.98
2019-03-12T12:40:48.303Z,49.88
2019-03-12T12:41:48.172Z,49.04
2019-03-12T12:42:48.167Z,49.24
2019-03-12T12:43:48.114Z,49.34
2019-03-12T12:44:48.084Z,48.83
2019-03-12T12:45:48.058Z,49.63
2019-03-12T12:46:48.027Z,49.96
2019-03-12T12:47:48.515Z,48.91
2019-03-12T12:48:47.996Z,47.91
2019-03-12T12:49:47.938Z,47.71
2019-03-12T12:51:02.026Z,48.42
2019-03-12T12:51:48.485Z,47.60